Time;durP1;ratioP1;P1;durP2;ratioP2;P2;SDS_P1;SDS_P2;PMS_P1;PMS_P2;Temp;Humidity;BMP_temperature;BMP_pressure;BME280_temperature;BME280_humidity;BME280_pressure;Samples;Min_cycle;Max_cycle;Signal;HPM_P1;HPM_P2
2022/01/12 00:00:06;;;;;;;10.87;4.87;;;;;;;;;;4925354;29;20047;-96
2022/01/12 00:02:34;;;;;;;13.45;4.07;;;;;;;;;;4936980;29;20035;-97
2022/01/12 00:05:02;;;;;;;19.23;4.53;;;;;;;;;;4926052;29;20031;-96
2022/01/12 00:07:28;;;;;;;5.53;3.50;;;;;;;;;;4940910;29;20024;-96
2022/01/12 00:10:00;;;;;;;10.93;5.38;;;;;;;;;;4936881;29;20046;-96
2022/01/12 00:12:28;;;;;;;7.93;4.35;;;;;;;;;;4940092;29;20035;-96
2022/01/12 00:15:03;;;;;;;11.73;4.47;;;;;;;;;;4923013;29;20490;-96
2022/01/12 00:17:35;;;;;;;11.63;3.35;;;;;;;;;;4931044;29;20497;-96
2022/01/12 00:20:09;;;;;;;9.45;4.22;;;;;;;;;;4937293;29;20746;-96
2022/01/12 00:22:37;;;;;;;8.80;3.83;;;;;;;;;;4933704;29;20044;-96
2022/01/12 00:25:56;;;;;;;9.52;4.30;;;;;;;;;;4939550;29;20110;-96
2022/01/12 00:33:26;;;;;;;7.68;3.92;;;;;;;;;;4937820;29;20115;-96
2022/01/12 00:36:13;;;;;;;12.35;4.70;;;;;;;;;;4935823;29;20031;-96
2022/01/12 00:39:01;;;;;;;;;;;4.80;87.60;;;;;;4936667;29;20029;-96
2022/01/12 00:41:57;;;;;;;8.07;3.63;;;;;;;;;;4937929;29;19954;-96
2022/01/12 00:44:35;;;;;;;8.65;4.40;;;;;;;;;;4937685;29;20493;-96
2022/01/12 00:47:03;;;;;;;9.80;4.13;;;;;;;;;;4938567;29;20052;-95
2022/01/12 00:49:51;;;;;;;11.88;4.70;;;;;;;;;;4939846;29;20039;-96
2022/01/12 00:52:55;;;;;;;8.70;4.47;;;;;;;;;;4934858;29;20028;-96
2022/01/12 00:55:24;;;;;;;5.15;3.05;;;;;;;;;;4926464;29;20179;-96
2022/01/12 00:57:51;;;;;;;6.95;2.97;;;;;;;;;;4946304;29;20101;-96
2022/01/12 01:00:17;;;;;;;13.07;5.53;;;;;;;;;;4937912;29;20055;-96
2022/01/12 01:02:43;;;;;;;9.07;4.22;;;;;;;;;;4941124;29;20083;-96
2022/01/12 01:05:10;;;;;;;7.95;4.47;;;;;;;;;;4937543;29;20036;-96
2022/01/12 01:07:36;;;;;;;7.35;4.22;;;;;;;;;;4927798;29;20088;-96
2022/01/12 01:10:10;;;;;;;12.68;4.85;;;;;;;;;;4933834;29;20059;-96
2022/01/12 01:12:45;;;;;;;13.32;5.63;;;;;;;;;;4934455;29;20031;-96
2022/01/12 01:15:18;;;;;;;12.25;5.07;;;;;;;;;;4925993;29;20055;-96
2022/01/12 01:26:23;;;;;;;12.63;4.57;;;;;;;;;;4938257;29;20462;-96
2022/01/12 01:28:49;;;;;;;8.93;3.83;;;;;;;;;;4940686;29;20031;-96
2022/01/12 01:31:15;;;;;;;7.38;3.88;;;;;;;;;;4940341;29;20062;-96
2022/01/12 01:33:41;;;;;;;8.70;4.40;;;;;;;;;;4938791;29;20024;-96
2022/01/12 01:36:07;;;;;;;8.73;4.43;;;;;;;;;;4933443;29;20040;-96
2022/01/12 01:38:33;;;;;;;6.10;3.53;;;;;;;;;;4940037;29;20048;-96
2022/01/12 01:40:59;;;;;;;21.15;4.95;;;;;;;;;;4941367;29;20121;-96
2022/01/12 01:54:13;;;;;;;6.75;3.13;;;4.50;86.50;;;;;;4938413;29;20054;-96
2022/01/12 01:56:39;;;;;;;10.73;4.28;;;;;;;;;;4940279;29;20499;-96
2022/01/12 01:59:05;;;;;;;5.95;3.35;;;;;;;;;;4921722;29;20051;-96
2022/01/12 02:01:32;;;;;;;11.82;4.38;;;;;;;;;;4935774;29;20035;-96
2022/01/12 02:04:02;;;;;;;7.63;3.33;;;;;;;;;;4926836;29;20079;-96
2022/01/12 02:06:28;;;;;;;3.72;2.55;;;;;;;;;;4942629;29;20043;-96
2022/01/12 02:08:54;;;;;;;7.32;4.00;;;;;;;;;;4929359;29;20039;-96
2022/01/12 02:11:27;;;;;;;9.98;4.10;;;4.20;87.00;;;;;;4930721;29;20051;-96
2022/01/12 02:13:53;;;;;;;9.45;3.63;;;;;;;;;;4944172;29;20019;-96
2022/01/12 02:16:25;;;;;;;9.93;5.68;;;;;;;;;;4945494;29;20035;-96
2022/01/12 02:35:56;;;;;;;6.93;3.72;;;;;;;;;;4840401;29;20040;-96
2022/01/12 02:41:07;;;;;;;10.23;3.38;;;;;;;;;;4833255;29;20049;-96
2022/01/12 02:51:35;;;;;;;8.02;3.60;;;;;;;;;;4848563;29;20497;-96
2022/01/12 02:54:03;;;;;;;7.38;3.45;;;;;;;;;;4842919;29;20056;-96
2022/01/12 02:56:33;;;;;;;18.73;6.88;;;4.20;85.40;;;;;;4845726;29;20515;-96
2022/01/12 02:59:00;;;;;;;10.43;3.75;;;;;;;;;;4896933;29;20033;-96
2022/01/12 03:02:08;;;;;;;6.75;2.88;;;4.20;85.60;;;;;;4896161;29;20044;-96
2022/01/12 03:05:00;;;;;;;6.30;3.25;;;;;;;;;;4900861;29;20404;-96
2022/01/12 03:07:30;;;;;;;9.23;4.05;;;;;;;;;;4921503;29;20066;-96
2022/01/12 03:09:56;;;;;;;9.10;3.97;;;;;;;;;;4930763;29;20019;-96
2022/01/12 03:12:22;;;;;;;8.30;3.33;;;;;;;;;;4941588;29;20613;-96
2022/01/12 03:14:48;;;;;;;9.90;3.65;;;;;;;;;;4937138;29;20035;-96
2022/01/12 03:17:15;;;;;;;9.07;4.38;;;;;;;;;;4939237;29;20066;-96
2022/01/12 03:19:42;;;;;;;8.88;4.28;;;;;;;;;;4949496;29;20035;-96
2022/01/12 03:22:08;;;;;;;12.13;3.83;;;;;;;;;;4949972;29;20027;-97
2022/01/12 03:24:34;;;;;;;6.93;3.25;;;;;;;;;;4950402;29;20071;-96
2022/01/12 03:27:00;;;;;;;7.32;3.72;;;;;;;;;;4950845;29;20054;-96
2022/01/12 03:29:26;;;;;;;8.73;3.70;;;;;;;;;;4946885;29;20039;-96
2022/01/12 03:31:56;;;;;;;8.13;4.07;;;;;;;;;;4940475;29;20025;-96
2022/01/12 03:34:29;;;;;;;9.18;4.00;;;;;;;;;;4915782;29;20055;-96
2022/01/12 03:39:40;;;;;;;6.70;3.47;;;3.90;84.30;;;;;;4951297;29;20038;-96
2022/01/12 03:42:06;;;;;;;10.05;3.60;;;;;;;;;;4930121;29;20024;-96
2022/01/12 03:44:32;;;;;;;6.10;3.55;;;;;;;;;;4950065;29;20040;-96
2022/01/12 03:46:58;;;;;;;8.18;5.45;;;;;;;;;;4951176;29;20024;-96
2022/01/12 03:49:24;;;;;;;8.70;3.50;;;;;;;;;;4951688;29;20032;-97
2022/01/12 03:51:50;;;;;;;7.53;2.72;;;;;;;;;;4946377;29;20027;-96
2022/01/12 03:54:17;;;;;;;10.45;3.72;;;;;;;;;;4952468;29;20079;-96
2022/01/12 03:56:43;;;;;;;12.80;3.57;;;3.80;84.30;;;;;;4953616;29;20035;-96
2022/01/12 03:59:09;;;;;;;9.55;4.85;;;;;;;;;;4935476;29;20280;-96
2022/01/12 04:01:35;;;;;;;5.15;3.70;;;;;;;;;;4937217;29;20060;-96
2022/01/12 04:04:07;;;;;;;8.45;3.47;;;;;;;;;;4938661;29;20118;-96
2022/01/12 04:09:17;;;;;;;10.43;3.45;;;;;;;;;;4951945;29;20074;-96
2022/01/12 04:11:43;;;;;;;7.30;4.05;;;3.90;96.60;;;;;;4952239;29;20052;-96
2022/01/12 04:14:09;;;;;;;6.07;3.60;;;;;;;;;;4934117;29;20027;-96
2022/01/12 04:16:36;;;;;;;8.55;3.72;;;;;;;;;;4949521;29;20027;-96
2022/01/12 04:19:02;;;;;;;8.88;4.30;;;;;;;;;;4940020;29;20059;-96
2022/01/12 04:21:30;;;;;;;7.60;3.40;;;;;;;;;;4934815;29;20052;-96
2022/01/12 04:24:00;;;;;;;8.15;3.95;;;3.80;82.20;;;;;;4953041;29;20040;-96
2022/01/12 04:26:27;;;;;;;7.15;4.07;;;3.80;82.00;;;;;;4934723;29;20050;-96
2022/01/12 04:28:53;;;;;;;4.40;2.20;;;;;;;;;;4934203;29;20465;-96
2022/01/12 04:31:20;;;;;;;5.70;3.33;;;;;;;;;;4950615;29;20063;-96
2022/01/12 04:33:46;;;;;;;7.38;3.33;;;3.80;82.80;;;;;;4949943;29;20028;-96
2022/01/12 04:36:16;;;;;;;10.85;3.67;;;3.80;82.10;;;;;;4944928;29;20036;-96
2022/01/12 04:38:43;;;;;;;7.38;2.83;;;;;;;;;;4949192;29;20028;-96
2022/01/12 04:41:10;;;;;;;8.27;3.60;;;3.70;82.10;;;;;;4950347;29;20024;-96
2022/01/12 04:43:38;;;;;;;6.30;3.22;;;3.80;81.90;;;;;;4948137;29;20044;-96
2022/01/12 04:48:35;;;;;;;8.45;3.95;;;;;;;;;;4952257;29;20114;-96
2022/01/12 04:51:01;;;;;;;7.30;3.45;;;;;;;;;;4952582;29;20031;-96
2022/01/12 04:53:27;;;;;;;10.30;3.28;;;;;;;;;;4952102;29;20035;-96
2022/01/12 04:55:53;;;;;;;8.55;3.40;;;3.60;82.60;;;;;;4952862;29;20058;-96
2022/01/12 04:58:19;;;;;;;11.50;3.85;;;;;;;;;;4951476;29;20056;-96
2022/01/12 05:00:47;;;;;;;10.73;5.22;;;3.70;81.60;;;;;;4950067;29;20504;-96
2022/01/12 05:13:57;;;;;;;7.47;4.22;;;;;;;;;;4932988;29;20131;-96
2022/01/12 05:16:23;;;;;;;6.32;4.22;;;;;;;;;;4943005;29;20031;-96
2022/01/12 05:18:51;;;;;;;7.40;3.80;;;3.70;80.90;;;;;;4949258;29;20055;-96
2022/01/12 05:21:18;;;;;;;10.73;4.00;;;;;;;;;;4933573;29;20028;-96
2022/01/12 05:23:44;;;;;;;9.80;3.25;;;;;;;;;;4948389;29;20124;-96
2022/01/12 05:26:10;;;;;;;6.68;2.90;;;;;;;;;;4932353;29;20051;-96
2022/01/12 05:28:38;;;;;;;10.57;4.75;;;3.70;81.50;;;;;;4941310;29;20055;-96
2022/01/12 05:31:05;;;;;;;9.13;3.95;;;;;;;;;;4915675;29;20052;-96
2022/01/12 05:33:46;;;;;;;9.98;4.38;;;;;;;;;;4900321;29;20037;-96
2022/01/12 05:36:38;;;;;;;7.78;4.15;;;;;;;;;;4925047;29;20094;-96
2022/01/12 05:39:49;;;;;;;6.40;2.63;;;3.60;82.30;;;;;;4948378;29;20028;-96
2022/01/12 05:43:07;;;;;;;10.68;3.38;;;;;;;;;;4892270;29;20040;-96
2022/01/12 05:51:51;;;;;;;9.15;3.30;;;;;;;;;;4872120;29;20049;-96
2022/01/12 05:54:57;;;;;;;7.20;3.35;;;3.50;82.90;;;;;;4869087;29;20101;-96
2022/01/12 05:57:49;;;;;;;13.75;4.45;;;;;;;;;;4841893;29;20057;-96
2022/01/12 06:01:21;;;;;;;8.77;3.53;;;3.40;83.70;;;;;;4852741;29;20026;-96
2022/01/12 06:03:54;;;;;;;12.10;4.53;;;;;;;;;;4840766;29;20046;-96
2022/01/12 06:06:43;;;;;;;9.07;4.50;;;;;;;;;;4854020;29;20050;-97
2022/01/12 06:09:48;;;;;;;9.43;3.75;;;3.30;83.10;;;;;;4855057;29;20061;-96
2022/01/12 06:12:14;;;;;;;12.75;4.93;;;;;;;;;;4845019;29;20057;-96
2022/01/12 06:14:41;;;;;;;11.93;5.57;;;;;;;;;;4863893;29;20087;-96
2022/01/12 06:17:08;;;;;;;5.85;3.83;;;3.30;82.50;;;;;;4850213;29;20063;-96
2022/01/12 06:19:34;;;;;;;16.52;5.47;;;;;;;;;;4851469;29;20050;-96
2022/01/12 06:22:00;;;;;;;13.63;4.35;;;;;;;;;;4863886;29;20034;-96
2022/01/12 06:24:28;;;;;;;8.10;4.50;;;;;;;;;;4859402;29;20045;-96
2022/01/12 06:26:54;;;;;;;12.00;4.25;;;;;;;;;;4878902;29;20049;-96
2022/01/12 06:31:53;;;;;;;14.05;4.07;;;3.20;82.40;;;;;;4919836;29;20141;-96
2022/01/12 06:34:19;;;;;;;14.73;5.00;;;;;;;;;;4914211;29;20068;-96
2022/01/12 06:37:11;;;;;;;12.07;4.10;;;;;;;;;;4943152;29;20031;-96
2022/01/12 06:39:40;;;;;;;15.98;7.10;;;;;;;;;;4921459;29;20469;-96
2022/01/12 06:42:32;;;;;;;18.88;6.22;;;;;;;;;;4917507;29;20036;-96
2022/01/12 06:45:07;;;;;;;10.25;5.05;;;;;;;;;;4938303;29;20028;-96
2022/01/12 06:48:14;;;;;;;8.45;3.83;;;;;;;;;;4934647;29;20032;-96
2022/01/12 06:51:24;;;;;;;9.73;3.97;;;;;;;;;;4923348;29;20040;-96
2022/01/12 06:54:18;;;;;;;9.90;4.70;;;;;;;;;;4938433;29;20028;-97
2022/01/12 06:56:50;;;;;;;11.88;4.97;;;;;;;;;;4944441;29;20475;-96
2022/01/12 06:59:31;;;;;;;11.35;4.43;;;;;;;;;;4898506;29;20052;-96
2022/01/12 07:01:57;;;;;;;9.88;3.97;;;;;;;;;;4892728;29;20035;-96
2022/01/12 07:04:44;;;;;;;8.43;3.65;;;;;;;;;;4944883;29;20044;-96
2022/01/12 07:07:30;;;;;;;15.82;6.60;;;;;;;;;;4887622;29;20044;-96
2022/01/12 07:09:56;;;;;;;9.93;5.22;;;;;;;;;;4883401;29;20069;-96
2022/01/12 07:12:22;;;;;;;13.98;7.10;;;;;;;;;;4885568;29;20029;-96
2022/01/12 07:14:48;;;;;;;12.30;5.63;;;;;;;;;;4848525;29;20048;-96
2022/01/12 07:17:14;;;;;;;6.50;3.45;;;;;;;;;;4844668;29;20049;-96
2022/01/12 07:19:44;;;;;;;10.18;4.03;;;;;;;;;;4849836;29;20125;-96
2022/01/12 07:22:11;;;;;;;8.45;4.55;;;;;;;;;;4856266;29;20070;-96
2022/01/12 07:24:40;;;;;;;7.05;4.32;;;;;;;;;;4868147;29;20065;-96
2022/01/12 07:27:08;;;;;;;7.43;4.80;;;;;;;;;;4831173;29;20472;-96
2022/01/12 07:30:18;;;;;;;14.52;4.78;;;2.50;83.10;;;;;;4854527;29;20059;-96
2022/01/12 07:32:48;;;;;;;14.60;4.82;;;;;;;;;;4862420;29;20056;-96
2022/01/12 07:35:14;;;;;;;9.38;4.45;;;;;;;;;;4838486;29;20038;-96
2022/01/12 07:37:40;;;;;;;12.10;5.80;;;;;;;;;;4877925;29;20130;-95
2022/01/12 07:40:07;;;;;;;22.13;9.68;;;;;;;;;;4924718;29;20031;-93
2022/01/12 07:42:33;;;;;;;19.08;7.75;;;;;;;;;;4903796;29;20045;-95
2022/01/12 07:45:12;;;;;;;17.70;7.00;;;;;;;;;;4914166;29;20147;-96
2022/01/12 07:47:38;;;;;;;11.15;4.70;;;;;;;;;;4919627;29;20075;-96
2022/01/12 07:50:06;;;;;;;11.70;4.47;;;2.80;82.60;;;;;;4923364;29;20115;-95
2022/01/12 07:52:32;;;;;;;13.02;4.15;;;;;;;;;;4898371;29;20119;-94
2022/01/12 07:54:58;;;;;;;18.13;7.65;;;;;;;;;;4907730;29;20106;-95
2022/01/12 07:57:25;;;;;;;12.23;7.07;;;;;;;;;;4923866;29;20131;-96
2022/01/12 07:59:51;;;;;;;15.40;6.97;;;;;;;;;;4925428;29;20024;-96
2022/01/12 08:02:17;;;;;;;15.90;5.07;;;;;;;;;;4925284;29;20448;-96
2022/01/12 08:04:43;;;;;;;18.48;8.20;;;;;;;;;;4920247;29;20075;-95
2022/01/12 08:07:10;;;;;;;20.25;8.40;;;;;;;;;;4922801;29;20379;-95
2022/01/12 08:09:40;;;;;;;;;;;3.00;82.90;;;;;;4923446;29;20649;-94
2022/01/12 08:12:06;;;;;;;21.38;7.60;;;;;;;;;;4922306;29;19925;-94
2022/01/12 08:14:32;;;;;;;15.57;7.05;;;;;;;;;;4902198;29;20042;-95
2022/01/12 08:16:58;;;;;;;15.95;7.72;;;;;;;;;;4921692;29;20026;-96
2022/01/12 08:19:25;;;;;;;15.88;6.63;;;;;;;;;;4926151;29;20545;-95
2022/01/12 08:21:51;;;;;;;18.17;7.47;;;;;;;;;;4927181;29;20031;-94
2022/01/12 08:24:19;;;;;;;20.95;6.85;;;;;;;;;;4919079;29;20319;-96
2022/01/12 08:26:45;;;;;;;15.05;6.13;;;;;;;;;;4923612;29;20059;-96
2022/01/12 08:29:14;;;;;;;17.80;6.18;;;;;;;;;;4935396;29;20060;-96
2022/01/12 08:31:40;;;;;;;10.73;4.80;;;;;;;;;;4926998;29;20103;-96
2022/01/12 08:34:06;;;;;;;11.30;4.32;;;;;;;;;;4922672;29;20036;-96
2022/01/12 08:36:32;;;;;;;9.60;4.30;;;;;;;;;;4926836;29;20031;-96
2022/01/12 08:38:59;;;;;;;7.85;3.40;;;;;;;;;;4919989;29;20034;-96
2022/01/12 08:41:25;;;;;;;12.68;3.85;;;;;;;;;;4949902;29;20020;-95
2022/01/12 08:43:52;;;;;;;17.70;7.68;;;;;;;;;;4918807;29;20039;-96
2022/01/12 08:46:18;;;;;;;8.23;3.60;;;;;;;;;;4926967;29;20033;-93
2022/01/12 08:48:44;;;;;;;12.77;5.22;;;;;;;;;;4928427;29;20816;-95
2022/01/12 08:51:10;;;;;;;11.18;5.13;;;;;;;;;;4924459;29;20027;-95
2022/01/12 08:53:36;;;;;;;10.48;5.35;;;;;;;;;;4923960;29;20040;-95
2022/01/12 08:56:02;;;;;;;10.43;5.25;;;;;;;;;;4925715;29;20378;-94
2022/01/12 08:58:28;;;;;;;16.42;4.72;;;;;;;;;;4918263;29;20036;-95
2022/01/12 09:00:55;;;;;;;14.25;6.25;;;;;;;;;;4915657;29;20054;-94
2022/01/12 09:03:22;;;;;;;14.02;7.22;;;;;;;;;;4927412;29;20409;-95
2022/01/12 09:05:49;;;;;;;11.15;4.93;;;;;;;;;;4923808;29;20495;-96
2022/01/12 09:08:15;;;;;;;13.40;5.43;;;;;;;;;;4927863;29;20027;-96
2022/01/12 09:10:43;;;;;;;19.80;4.68;;;;;;;;;;4931743;29;20128;-96
2022/01/12 09:13:09;;;;;;;17.23;6.75;;;;;;;;;;4936444;29;20069;-96
2022/01/12 09:15:35;;;;;;;7.88;4.22;;;;;;;;;;4919559;29;20139;-96
2022/01/12 09:18:02;;;;;;;13.40;4.80;;;;;;;;;;4930153;29;20031;-94
2022/01/12 09:23:03;;;;;;;14.07;5.95;;;;;;;;;;4980184;28;20046;-96
2022/01/12 09:25:29;;;;;;;15.90;6.25;;;;;;;;;;4979123;28;20465;-94
2022/01/12 09:27:57;;;;;;;11.75;5.60;;;;;;;;;;4974626;28;20480;-95
2022/01/12 09:30:26;;;;;;;14.00;5.65;;;;;;;;;;4979444;28;20031;-96
2022/01/12 09:32:52;;;;;;;16.40;7.03;;;;;;;;;;4984730;28;20412;-96
2022/01/12 09:35:18;;;;;;;12.57;4.70;;;;;;;;;;4990214;28;20027;-96
2022/01/12 09:37:44;;;;;;;10.57;3.70;;;;;;;;;;4981114;28;20450;-96
2022/01/12 09:40:11;;;;;;;15.25;4.38;;;;;;;;;;4987059;28;20039;-90
2022/01/12 09:42:37;;;;;;;10.20;5.30;;;;;;;;;;4981140;28;20531;-96
2022/01/12 09:45:04;;;;;;;13.30;5.53;;;;;;;;;;4979077;28;20027;-93
2022/01/12 09:47:30;;;;;;;13.70;4.82;;;;;;;;;;4977674;28;20066;-93
2022/01/12 09:49:56;;;;;;;7.65;4.15;;;;;;;;;;4976443;28;20023;-92
2022/01/12 09:52:23;;;;;;;16.85;6.22;;;;;;;;;;4971991;28;20057;-95
2022/01/12 09:54:49;;;;;;;13.00;5.22;;;;;;;;;;4978820;28;20026;-94
2022/01/12 09:57:15;;;;;;;13.00;4.47;;;;;;;;;;4985402;28;20030;-92
2022/01/12 09:59:41;;;;;;;10.00;5.03;;;;;;;;;;4970263;28;20033;-93
2022/01/12 10:02:17;;;;;;;10.70;4.85;;;;;;;;;;4975882;28;20037;-91
2022/01/12 10:04:44;;;;;;;9.88;4.70;;;;;;;;;;4974882;28;20049;-95
2022/01/12 10:07:11;;;;;;;13.90;4.80;;;;;;;;;;4983599;28;20484;-95
2022/01/12 10:09:39;;;;;;;11.25;3.53;;;;;;;;;;4973295;28;20093;-92
2022/01/12 10:12:11;;;;;;;8.68;4.30;;;;;;;;;;4981308;28;20035;-95
2022/01/12 10:14:55;;;;;;;8.95;5.00;;;4.90;72.70;;;;;;4972805;28;20031;-95
2022/01/12 10:17:35;;;;;;;8.57;4.50;;;;;;;;;;4975720;28;20164;-94
2022/01/12 10:20:18;;;;;;;9.68;5.15;;;;;;;;;;4976531;28;20069;-95
2022/01/12 10:23:07;;;;;;;9.40;4.00;;;5.30;69.20;;;;;;4964367;28;20106;-94
2022/01/12 10:25:33;;;;;;;11.98;3.58;;;;;;;;;;4969526;28;20077;-96
2022/01/12 10:27:59;;;;;;;15.35;5.88;;;;;;;;;;4973256;28;20042;-96
2022/01/12 10:30:30;;;;;;;11.93;5.85;;;5.30;68.80;;;;;;4978789;28;20035;-96
2022/01/12 10:33:04;;;;;;;16.52;4.47;;;5.30;68.60;;;;;;4956082;28;20027;-95
2022/01/12 10:35:34;;;;;;;17.35;7.10;;;5.30;68.50;;;;;;4974943;28;20054;-94
2022/01/12 10:38:07;;;;;;;10.10;4.78;;;;;;;;;;4955595;28;20057;-92
2022/01/12 10:41:03;;;;;;;6.65;4.25;;;5.20;70.00;;;;;;4971246;28;20069;-96
2022/01/12 10:43:29;;;;;;;9.73;4.90;;;;;;;;;;4957293;28;20217;-96
2022/01/12 10:45:56;;;;;;;13.52;4.80;;;;;;;;;;4976811;28;20051;-95
2022/01/12 10:48:24;;;;;;;10.57;5.35;;;;;;;;;;4972399;28;20058;-93
2022/01/12 10:51:08;;;;;;;23.27;6.68;;;;;;;;;;4967773;28;20034;-92
2022/01/12 10:53:35;;;;;;;13.95;6.53;;;4.90;70.50;;;;;;4971341;28;20419;-95
2022/01/12 10:56:02;;;;;;;10.77;5.97;;;;;;;;;;4969452;28;20594;-93
2022/01/12 10:58:28;;;;;;;16.45;5.32;;;;;;;;;;4976090;28;20142;-94
2022/01/12 11:00:54;;;;;;;10.23;5.50;;;;;;;;;;4973111;28;20027;-94
2022/01/12 11:03:20;;;;;;;11.50;5.13;;;;;;;;;;4984977;28;20042;-94
2022/01/12 11:05:47;;;;;;;12.93;4.45;;;;;;;;;;4969362;28;20035;-94
2022/01/12 11:08:13;;;;;;;8.00;4.65;;;;;;;;;;4978412;28;20031;-93
2022/01/12 11:10:40;;;;;;;13.52;5.93;;;;;;;;;;4981448;28;20566;-95
2022/01/12 11:13:06;;;;;;;7.85;4.22;;;;;;;;;;4973540;28;20039;-94
2022/01/12 11:15:33;;;;;;;11.80;5.95;;;;;;;;;;4977740;28;20069;-95
2022/01/12 11:17:59;;;;;;;13.98;5.20;;;;;;;;;;4969151;28;20070;-94
2022/01/12 11:20:27;;;;;;;11.23;4.90;;;;;;;;;;4960748;28;20027;-94
2022/01/12 11:23:03;;;;;;;13.50;4.88;;;;;;;;;;4967943;28;20050;-95
2022/01/12 11:25:32;;;;;;;6.40;4.13;;;;;;;;;;4968146;28;20073;-95
2022/01/12 11:28:07;;;;;;;10.73;5.18;;;;;;;;;;4989842;28;20499;-93
2022/01/12 11:30:33;;;;;;;6.85;4.60;;;;;;;;;;4987057;28;20027;-95
2022/01/12 11:33:00;;;;;;;17.33;5.43;;;;;;;;;;4977474;28;20023;-95
2022/01/12 11:35:33;;;;;;;11.07;4.03;;;5.70;68.00;;;;;;4974386;28;20039;-94
2022/01/12 11:38:00;;;;;;;9.73;4.15;;;;;;;;;;4970087;28;20038;-95
2022/01/12 11:40:42;;;;;;;18.30;4.68;;;;;;;;;;4982849;28;20034;-93
2022/01/12 11:43:17;;;;;;;10.32;4.63;;;;;;;;;;4973820;28;20109;-95
2022/01/12 11:45:43;;;;;;;13.05;5.45;;;;;;;;;;4978110;28;20022;-95
2022/01/12 11:48:09;;;;;;;9.30;4.32;;;;;;;;;;4970162;28;20042;-96
2022/01/12 11:50:35;;;;;;;7.45;3.70;;;;;;;;;;4979691;28;20073;-95
2022/01/12 11:53:01;;;;;;;12.07;4.20;;;;;;;;;;4977008;28;20019;-94
2022/01/12 11:55:37;;;;;;;8.73;5.03;;;5.90;90.60;;;;;;4980802;28;20050;-95
2022/01/12 11:58:04;;;;;;;9.23;4.57;;;;;;;;;;4971997;28;20046;-94
2022/01/12 12:00:31;;;;;;;9.32;4.43;;;;;;;;;;4975625;28;20488;-94
2022/01/12 12:02:57;;;;;;;9.18;4.90;;;;;;;;;;4975740;28;20093;-94
2022/01/12 12:05:29;;;;;;;11.90;3.42;;;5.40;71.50;;;;;;4972623;28;20053;-95
2022/01/12 12:07:58;;;;;;;20.30;4.65;;;;;;;;;;4970688;28;20037;-94
2022/01/12 12:10:26;;;;;;;11.98;5.10;;;5.10;71.10;;;;;;4973547;28;20092;-94
2022/01/12 12:12:52;;;;;;;10.65;4.45;;;;;;;;;;4971466;28;20028;-94
2022/01/12 12:15:19;;;;;;;11.00;4.68;;;;;;;;;;4973967;28;20042;-94
2022/01/12 12:17:45;;;;;;;12.30;4.65;;;;;;;;;;4979664;28;20034;-95
2022/01/12 12:20:13;;;;;;;10.88;4.10;;;;;;;;;;4975119;28;20452;-96
2022/01/12 12:22:40;;;;;;;10.70;4.40;;;;;;;;;;4976643;28;20097;-96
2022/01/12 12:25:06;;;;;;;;;;;;;;;;;;4972392;28;20034;-96
2022/01/12 12:27:33;;;;;;;10.80;5.18;;;;;;;;;;4976502;28;19993;-95
2022/01/12 12:29:59;;;;;;;13.27;4.93;;;;;;;;;;4972459;28;20027;-95
2022/01/12 12:32:40;;;;;;;14.48;5.05;;;4.90;72.80;;;;;;4975158;28;20038;-96
2022/01/12 12:35:15;;;;;;;11.13;3.75;;;4.80;73.40;;;;;;4969989;28;20042;-96
2022/01/12 12:37:46;;;;;;;7.75;3.53;;;;;;;;;;4968903;28;20031;-95
2022/01/12 12:40:30;;;;;;;11.68;5.38;;;4.80;74.90;;;;;;4971909;28;20039;-96
2022/01/12 12:43:08;;;;;;;8.48;4.07;;;;;;;;;;4957262;28;20093;-96
2022/01/12 12:45:44;;;;;;;12.75;4.45;;;;;;;;;;4978514;28;20042;-95
2022/01/12 12:48:15;;;;;;;15.57;4.57;;;;;;;;;;4984663;28;20510;-94
2022/01/12 12:50:42;;;;;;;21.23;6.18;;;;;;;;;;4973235;28;20069;-96
2022/01/12 12:53:08;;;;;;;9.07;3.47;;;;;;;;;;4974207;28;20039;-92
2022/01/12 12:55:35;;;;;;;10.13;5.22;;;;;;;;;;4971037;28;20561;-93
2022/01/12 12:58:02;;;;;;;9.73;4.45;;;;;;;;;;4976595;28;20550;-96
2022/01/12 13:00:28;;;;;;;9.68;4.88;;;;;;;;;;4980538;28;20034;-94
2022/01/12 13:02:58;;;;;;;10.35;4.80;;;4.80;75.30;;;;;;4970694;28;20534;-96
2022/01/12 13:05:26;;;;;;;9.75;4.78;;;;;;;;;;4997129;28;20026;-96
2022/01/12 13:07:52;;;;;;;10.73;4.63;;;;;;;;;;4990131;28;20038;-96
2022/01/12 13:10:19;;;;;;;9.20;4.20;;;;;;;;;;4981852;28;20034;-96
2022/01/12 13:12:46;;;;;;;;;;;4.70;76.10;;;;;;4974279;28;20054;-96
2022/01/12 13:15:24;;;;;;;10.07;4.45;;;;;;;;;;4978919;28;20366;-96
2022/01/12 13:17:57;;;;;;;9.45;4.05;;;;;;;;;;4973250;28;20049;-96
2022/01/12 13:23:01;;;;;;;7.60;3.60;;;;;;;;;;4974266;28;20660;-95
2022/01/12 13:25:27;;;;;;;10.25;4.68;;;;;;;;;;4971359;28;20042;-95
2022/01/12 13:27:53;;;;;;;10.57;4.40;;;;;;;;;;4976804;28;20592;-94
2022/01/12 13:30:28;;;;;;;6.70;3.53;;;;;;;;;;4971729;28;20039;-94
2022/01/12 13:32:55;;;;;;;13.73;4.60;;;;;;;;;;4990201;28;20042;-95
2022/01/12 13:35:32;;;;;;;10.18;5.15;;;;;;;;;;4963787;28;20053;-96
2022/01/12 13:38:01;;;;;;;7.47;4.72;;;;;;;;;;4966555;28;20048;-96
2022/01/12 13:40:37;;;;;;;15.18;4.90;;;;;;;;;;4977274;28;20459;-92
2022/01/12 13:43:04;;;;;;;11.80;5.00;;;4.70;75.90;;;;;;4974482;28;20483;-96
2022/01/12 13:45:38;;;;;;;8.32;5.28;;;4.70;75.90;;;;;;4980201;28;20038;-92
2022/01/12 13:48:12;;;;;;;10.75;4.38;;;;;;;;;;4974896;28;20219;-95
2022/01/12 13:50:41;;;;;;;10.35;3.83;;;4.70;76.40;;;;;;4971684;28;20038;-95
2022/01/12 13:53:07;;;;;;;9.60;3.35;;;4.60;76.80;;;;;;4974661;28;20058;-95
2022/01/12 13:55:34;;;;;;;16.30;5.03;;;;;;;;;;4976791;28;20033;-95
2022/01/12 13:58:05;;;;;;;7.63;4.03;;;;;;;;;;4983318;28;20049;-96
2022/01/12 14:00:31;;;;;;;14.32;4.68;;;;;;;;;;4971264;28;20118;-95
2022/01/12 14:02:57;;;;;;;14.45;4.68;;;;;;;;;;4973832;28;20046;-94
2022/01/12 14:05:36;;;;;;;13.57;4.93;;;;;;;;;;4977391;28;20130;-96
2022/01/12 14:08:06;;;;;;;15.63;4.20;;;4.50;77.30;;;;;;4978910;28;20105;-95
2022/01/12 14:10:32;;;;;;;11.80;3.65;;;;;;;;;;4970293;28;20023;-95
2022/01/12 14:12:58;;;;;;;7.28;3.42;;;;;;;;;;4964842;28;20173;-96
2022/01/12 14:15:30;;;;;;;19.00;5.22;;;4.40;76.70;;;;;;4979244;28;20058;-96
2022/01/12 14:17:56;;;;;;;15.07;4.13;;;;;;;;;;4970607;28;20034;-94
2022/01/12 14:20:40;;;;;;;10.57;5.57;;;4.50;77.10;;;;;;4981612;28;20038;-96
2022/01/12 14:23:10;;;;;;;11.05;3.85;;;;;;;;;;4987489;28;20121;-94
2022/01/12 14:25:49;;;;;;;11.20;4.70;;;4.60;76.40;;;;;;4977452;28;20031;-93
2022/01/12 14:28:17;;;;;;;12.95;4.32;;;;;;;;;;4973485;28;20049;-94
2022/01/12 14:30:43;;;;;;;18.13;6.20;;;;;;;;;;4976996;28;20171;-95
2022/01/12 14:33:10;;;;;;;11.70;5.15;;;;;;;;;;4961646;28;20122;-95
2022/01/12 14:35:36;;;;;;;8.10;4.00;;;;;;;;;;4972962;28;20046;-95
2022/01/12 14:38:02;;;;;;;13.32;5.85;;;;;;;;;;4972093;28;20038;-95
2022/01/12 14:40:29;;;;;;;17.52;5.07;;;;;;;;;;4969171;28;20500;-95
2022/01/12 14:42:55;;;;;;;;;;;;;;;;;;4966867;28;20125;-92
2022/01/12 14:45:24;;;;;;;6.82;3.08;;;;;;;;;;4973303;28;20005;-93
2022/01/12 14:47:51;;;;;;;13.10;6.40;;;;;;;;;;4975154;28;20061;-94
2022/01/12 14:50:17;;;;;;;13.35;4.13;;;;;;;;;;4974727;28;20050;-96
2022/01/12 14:52:47;;;;;;;13.65;4.57;;;;;;;;;;4983107;28;20035;-96
2022/01/12 14:55:14;;;;;;;10.60;4.95;;;;;;;;;;4978688;28;20034;-94
2022/01/12 14:57:40;;;;;;;6.43;3.80;;;;;;;;;;4967178;28;20038;-94
2022/01/12 15:00:08;;;;;;;13.18;4.07;;;;;;;;;;4972681;28;20121;-94
2022/01/12 15:02:35;;;;;;;11.23;4.93;;;;;;;;;;4988555;28;20087;-96
2022/01/12 15:05:01;;;;;;;22.75;4.60;;;;;;;;;;5013956;28;20010;-96
2022/01/12 15:07:28;;;;;;;9.05;4.32;;;;;;;;;;4992298;28;20063;-96
2022/01/12 15:09:54;;;;;;;16.77;6.80;;;;;;;;;;4969555;28;20053;-94
2022/01/12 15:12:29;;;;;;;11.00;5.15;;;;;;;;;;4973615;28;20101;-96
2022/01/12 15:14:59;;;;;;;11.55;4.28;;;;;;;;;;4988218;28;20080;-96
2022/01/12 15:17:28;;;;;;;13.07;4.70;;;4.30;77.70;;;;;;4968924;28;20035;-96
2022/01/12 15:19:54;;;;;;;12.23;4.63;;;;;;;;;;4983937;28;20034;-95
2022/01/12 15:22:20;;;;;;;8.90;5.25;;;;;;;;;;4969129;28;20051;-96
2022/01/12 15:24:46;;;;;;;7.38;4.63;;;;;;;;;;4979436;28;20046;-93
2022/01/12 15:27:12;;;;;;;10.90;4.95;;;;;;;;;;4984110;28;20037;-96
2022/01/12 15:29:38;;;;;;;13.95;5.13;;;;;;;;;;4977925;28;20113;-95
2022/01/12 15:32:04;;;;;;;15.77;4.82;;;;;;;;;;4972919;28;20454;-94
2022/01/12 15:34:30;;;;;;;13.35;4.93;;;;;;;;;;4971455;28;20476;-96
2022/01/12 15:36:56;;;;;;;13.20;4.35;;;;;;;;;;4981386;28;20030;-96
2022/01/12 15:39:22;;;;;;;8.68;3.65;;;;;;;;;;4980705;28;20077;-96
2022/01/12 15:41:48;;;;;;;12.50;5.95;;;;;;;;;;4978812;28;20026;-96
2022/01/12 15:44:14;;;;;;;11.18;4.90;;;4.20;78.30;;;;;;4977235;28;20043;-96
2022/01/12 15:46:40;;;;;;;12.45;4.43;;;;;;;;;;4979871;28;20046;-96
2022/01/12 15:49:06;;;;;;;9.55;5.70;;;;;;;;;;4978618;28;20330;-96
2022/01/12 15:51:32;;;;;;;12.68;5.72;;;;;;;;;;4981302;28;20582;-96
2022/01/12 15:53:58;;;;;;;8.23;3.67;;;;;;;;;;4990311;28;20050;-96
2022/01/12 15:56:25;;;;;;;6.18;3.83;;;;;;;;;;4983949;28;20034;-96
2022/01/12 15:58:51;;;;;;;10.38;4.30;;;;;;;;;;4981362;28;20034;-96
2022/01/12 16:01:17;;;;;;;18.42;6.68;;;;;;;;;;4985178;28;20027;-96